Time;durP1;ratioP1;P1;durP2;ratioP2;P2;SDS_P1;SDS_P2;PMS_P1;PMS_P2;Temp;Humidity;BMP_temperature;BMP_pressure;BME280_temperature;BME280_humidity;BME280_pressure;Samples;Min_cycle;Max_cycle;Signal;HPM_P1;HPM_P2
2024/04/06 00:07:46;;;;;;;1.10;1.00;;;1.70;99.90;;;;;;1944085;72;28852;-92
2024/04/06 00:11:05;;;;;;;1.33;1.20;;;1.70;99.90;;;;;;1933950;72;25992;-92
2024/04/06 00:14:40;;;;;;;1.23;1.13;;;1.60;99.90;;;;;;1916673;72;25245;-92
2024/04/06 00:17:44;;;;;;;1.10;1.00;;;1.70;99.90;;;;;;1942940;72;25215;-91
2024/04/06 00:21:01;;;;;;;1.13;1.00;;;1.70;99.90;;;;;;1951744;72;25597;-91
2024/04/06 00:23:55;;;;;;;2.30;1.30;;;1.70;99.90;;;;;;1944912;72;25720;-91
2024/04/06 00:26:50;;;;;;;1.43;0.90;;;1.60;99.90;;;;;;1945762;72;25689;-91
2024/04/06 00:30:23;;;;;;;0.87;0.70;;;1.70;99.90;;;;;;1908799;73;25236;-91
2024/04/06 00:37:08;;;;;;;0.60;0.60;;;1.70;99.90;;;;;;1901026;74;25179;-91
2024/04/06 00:55:23;;;;;;;1.00;1.00;;;1.60;99.90;;;;;;1929695;74;25694;-91
2024/04/06 01:02:47;;;;;;;0.90;0.70;;;1.70;99.90;;;;;;1913471;74;25766;-91
2024/04/06 01:23:23;;;;;;;1.13;0.90;;;1.70;99.90;;;;;;1895229;75;27102;-90
2024/04/06 02:04:12;;;;;;;0.40;0.40;;;1.60;99.90;;;;;;1956468;72;25188;-91
2024/04/06 02:07:52;;;;;;;0.50;0.50;;;1.60;99.90;;;;;;1954522;72;25221;-92
2024/04/06 02:18:20;;;;;;;0.60;0.60;;;1.60;99.90;;;;;;1939648;73;25226;-92
2024/04/06 02:21:47;;;;;;;0.50;0.50;;;1.60;99.90;;;;;;1921960;73;25332;-91
2024/04/06 02:24:58;;;;;;;0.30;0.30;;;1.60;99.90;;;;;;1915399;73;25703;-91
2024/04/06 02:28:15;;;;;;;0.53;0.40;;;1.60;99.90;;;;;;1898147;75;25254;-91
2024/04/06 02:31:10;;;;;;;0.40;0.40;;;1.60;99.90;;;;;;1915414;74;25224;-91
2024/04/06 02:34:29;;;;;;;0.50;0.50;;;1.60;99.90;;;;;;1890493;75;25277;-91
2024/04/06 02:38:00;;;;;;;0.27;0.27;;;1.60;99.90;;;;;;1875865;75;25225;-92
2024/04/06 02:41:16;;;;;;;0.50;0.50;;;1.60;99.90;;;;;;1872499;75;25244;-90
2024/04/06 02:47:25;;;;;;;0.23;0.23;;;1.50;99.90;;;;;;1949543;72;26994;-91
2024/04/06 02:54:06;;;;;;;0.30;0.30;;;1.50;99.90;;;;;;1943847;72;27064;-91
2024/04/06 02:57:10;;;;;;;0.50;0.50;;;1.40;99.90;;;;;;1936248;72;25873;-92
2024/04/06 03:00:23;;;;;;;0.40;0.40;;;1.40;99.90;;;;;;1933037;73;25259;-92
2024/04/06 03:03:24;;;;;;;0.30;0.30;;;1.50;99.90;;;;;;1936625;73;25266;-91
2024/04/06 03:06:42;;;;;;;0.40;0.40;;;1.50;99.90;;;;;;1926415;73;25231;-92
2024/04/06 03:09:56;;;;;;;0.33;0.33;;;1.50;99.90;;;;;;1911302;73;25659;-91
2024/04/06 03:12:54;;;;;;;0.23;0.23;;;1.50;99.90;;;;;;1931341;72;25673;-90
2024/04/06 03:16:01;;;;;;;0.60;0.40;;;1.60;99.90;;;;;;1853769;76;25226;-91
2024/04/06 03:18:53;;;;;;;0.30;0.30;;;1.50;99.90;;;;;;1859158;76;25719;-90
2024/04/06 03:22:02;;;;;;;0.37;0.37;;;1.50;99.90;;;;;;1893344;75;25275;-90
2024/04/06 03:25:21;;;;;;;0.50;0.50;;;1.40;99.90;;;;;;1856546;76;25231;-91
2024/04/06 03:28:19;;;;;;;1.33;0.50;;;1.50;99.90;;;;;;1879851;75;25277;-91
2024/04/06 03:31:33;;;;;;;0.50;0.50;;;1.40;99.90;;;;;;1816458;77;25313;-90
2024/04/06 03:34:27;;;;;;;0.40;0.40;;;1.50;99.90;;;;;;1827193;76;25843;-91
2024/04/06 03:37:25;;;;;;;0.50;0.50;;;1.50;99.90;;;;;;1827549;77;26362;-90
2024/04/06 03:40:20;;;;;;;0.40;0.40;;;1.40;99.90;;;;;;1823497;77;25185;-91
2024/04/06 03:43:10;;;;;;;1.33;0.30;;;1.40;99.90;;;;;;1868332;76;25295;-90
2024/04/06 03:46:09;;;;;;;1.47;0.67;;;1.60;99.90;;;;;;1897852;75;25247;-90
2024/04/06 03:48:59;;;;;;;0.47;0.47;;;1.60;99.90;;;;;;1906683;75;25215;-90
2024/04/06 03:51:50;;;;;;;0.47;0.47;;;1.50;99.90;;;;;;1879898;74;25168;-90
2024/04/06 03:55:02;;;;;;;0.50;0.50;;;1.50;99.90;;;;;;1912691;74;25835;-90
2024/04/06 03:58:02;;;;;;;0.30;0.30;;;1.60;99.90;;;;;;1892815;74;25317;-90
2024/04/06 04:01:00;;;;;;;0.60;0.60;;;1.50;99.90;;;;;;1907029;73;25222;-90
2024/04/06 04:03:53;;;;;;;0.40;0.40;;;1.50;99.90;;;;;;1904082;74;25231;-90
2024/04/06 04:06:42;;;;;;;0.40;0.40;;;1.50;99.90;;;;;;1897885;74;25252;-90
2024/04/06 04:12:28;;;;;;;0.97;0.40;;;1.50;99.90;;;;;;1953298;72;27068;-92
2024/04/06 04:15:22;;;;;;;0.30;0.30;;;1.50;99.90;;;;;;1931266;73;25738;-91
2024/04/06 04:36:24;;;;;;;0.43;0.43;;;1.50;99.90;;;;;;1961919;72;28240;-91
2024/04/06 04:39:34;;;;;;;0.40;0.40;;;1.50;99.90;;;;;;1934654;73;25226;-91
2024/04/06 04:42:24;;;;;;;2.10;0.40;;;1.50;99.90;;;;;;2026284;70;25196;-91
2024/04/06 04:45:14;;;;;;;0.30;0.30;;;1.40;99.90;;;;;;2018066;70;25279;-91
2024/04/06 04:48:05;;;;;;;0.27;0.27;;;1.50;99.90;;;;;;2010767;70;25175;-91
2024/04/06 04:50:58;;;;;;;0.20;0.20;;;1.50;99.90;;;;;;2023035;70;25579;-91
2024/04/06 04:56:47;;;;;;;0.30;0.30;;;1.50;99.90;;;;;;1928515;74;27089;-91
2024/04/06 04:59:45;;;;;;;0.20;0.20;;;1.50;99.90;;;;;;1900771;75;25745;-91
2024/04/06 05:05:17;;;;;;;0.47;0.47;;;1.60;99.90;;;;;;1955930;72;27376;-91
2024/04/06 05:11:03;;;;;;;0.50;0.50;;;1.60;99.90;;;;;;1976182;72;31767;-91
2024/04/06 05:13:54;;;;;;;0.40;0.40;;;1.60;99.90;;;;;;1951192;73;25230;-91
2024/04/06 05:16:46;;;;;;;0.40;0.40;;;1.60;99.90;;;;;;1946185;72;25665;-91
2024/04/06 05:19:37;;;;;;;0.50;0.50;;;1.60;99.90;;;;;;1923542;73;25153;-91
2024/04/06 05:22:29;;;;;;;0.57;0.53;;;1.70;99.90;;;;;;1949897;73;25188;-91
2024/04/06 05:31:34;;;;;;;0.40;0.40;;;1.70;99.90;;;;;;1924728;73;25231;-91
2024/04/06 05:37:20;;;;;;;0.40;0.40;;;1.80;99.90;;;;;;1925166;72;27339;-91
2024/04/06 05:40:14;;;;;;;1.60;0.50;;;1.90;99.90;;;;;;1872441;76;25221;-91
2024/04/06 05:43:23;;;;;;;0.40;0.40;;;1.70;99.90;;;;;;1786648;78;25805;-92
2024/04/06 05:46:26;;;;;;;0.50;0.50;;;1.70;99.90;;;;;;1832741;76;25342;-91
2024/04/06 05:49:16;;;;;;;0.40;0.40;;;1.70;99.90;;;;;;1834784;77;25267;-91
2024/04/06 05:52:12;;;;;;;0.20;0.20;;;1.90;99.90;;;;;;1847497;76;25174;-91
2024/04/06 05:55:05;;;;;;;0.60;0.60;;;1.90;99.90;;;;;;1915711;73;25143;-91
2024/04/06 05:57:57;;;;;;;1.80;0.70;;;1.90;99.90;;;;;;1864673;75;25348;-92
2024/04/06 06:01:16;;;;;;;0.50;0.50;;;2.00;99.90;;;;;;1840800;76;25236;-91
2024/04/06 06:04:06;;;;;;;0.47;0.47;;;2.00;99.90;;;;;;1870595;76;25225;-92
2024/04/06 06:07:24;;;;;;;0.70;0.70;;;2.10;99.90;;;;;;1825125;78;25266;-90
2024/04/06 06:10:21;;;;;;;0.50;0.50;;;2.10;99.90;;;;;;1817054;78;25248;-90
2024/04/06 06:16:32;;;;;;;1.10;0.50;;;2.10;99.90;;;;;;1873550;75;25339;-90
2024/04/06 06:19:23;;;;;;;0.80;0.80;;;2.00;99.90;;;;;;1837242;78;25726;-90
2024/04/06 06:22:36;;;;;;;2.00;0.80;;;2.00;99.90;;;;;;1839662;78;25185;-90
2024/04/06 06:25:31;;;;;;;0.40;0.40;;;2.00;99.90;;;;;;1814973;78;25807;-91
2024/04/06 06:28:35;;;;;;;0.50;0.50;;;2.10;99.90;;;;;;1820834;78;25184;-90
2024/04/06 06:31:31;;;;;;;0.50;0.50;;;2.10;99.90;;;;;;1827313;77;25699;-90
2024/04/06 06:34:22;;;;;;;1.07;0.70;;;2.20;99.90;;;;;;1809361;77;25266;-90
2024/04/06 06:37:13;;;;;;;0.50;0.50;;;2.20;99.90;;;;;;1805473;77;25807;-91
2024/04/06 06:43:00;;;;;;;0.53;0.53;;;2.30;99.90;;;;;;1955845;72;26989;-91
2024/04/06 06:45:48;;;;;;;0.73;0.70;;;2.40;99.90;;;;;;1930577;73;25682;-92
2024/04/06 06:48:37;;;;;;;0.70;0.70;;;2.40;99.90;;;;;;1936252;73;25162;-91
2024/04/06 06:51:29;;;;;;;0.73;0.50;;;2.40;99.90;;;;;;1935001;73;25207;-91
2024/04/06 06:54:20;;;;;;;0.63;0.63;;;2.50;99.90;;;;;;1927677;72;25209;-91
2024/04/06 06:57:08;;;;;;;0.70;0.70;;;2.60;99.90;;;;;;1948332;73;25675;-91
2024/04/06 06:59:57;;;;;;;0.50;0.50;;;2.70;99.90;;;;;;1928943;72;25642;-91
2024/04/06 07:02:46;;;;;;;0.80;0.80;;;2.70;99.90;;;;;;1917785;72;25271;-91
2024/04/06 07:21:22;;;;;;;1.00;0.90;;;2.70;99.90;;;;;;1989752;71;26391;-91
2024/04/06 07:24:47;;;;;;;0.97;0.80;;;2.80;99.90;;;;;;1952836;72;25187;-91
2024/04/06 07:27:38;;;;;;;0.80;0.80;;;2.70;99.90;;;;;;1954482;72;25197;-90
2024/04/06 07:33:24;;;;;;;0.70;0.70;;;2.90;99.90;;;;;;1938433;72;27360;-91
2024/04/06 07:39:37;;;;;;;0.50;0.50;;;2.90;99.90;;;;;;1951082;71;26854;-91
2024/04/06 07:43:24;;;;;;;0.70;0.50;;;2.80;99.90;;;;;;1932901;72;25224;-90
2024/04/06 07:46:27;;;;;;;1.70;0.80;;;2.90;99.90;;;;;;1932223;73;25179;-91
2024/04/06 07:49:22;;;;;;;0.60;0.60;;;2.90;99.90;;;;;;1918291;73;25633;-90
2024/04/06 07:55:25;;;;;;;0.60;0.60;;;2.80;99.90;;;;;;1928474;72;25283;-91
2024/04/06 07:58:16;;;;;;;1.77;0.60;;;3.00;99.90;;;;;;1945959;73;25673;-91
2024/04/06 08:01:07;;;;;;;0.50;0.50;;;3.20;99.90;;;;;;1934734;72;25236;-90
2024/04/06 08:03:58;;;;;;;0.60;0.60;;;3.40;99.90;;;;;;1905209;75;25232;-90
2024/04/06 08:14:05;;;;;;;0.50;0.50;;;3.30;99.90;;;;;;1926924;72;25262;-90
2024/04/06 08:17:11;;;;;;;0.57;0.57;;;3.10;99.90;;;;;;1869579;75;25272;-90
2024/04/06 08:20:00;;;;;;;0.60;0.60;;;3.20;99.90;;;;;;1934667;73;25277;-89
2024/04/06 08:23:28;;;;;;;1.97;0.57;;;3.20;99.90;;;;;;1925923;72;25286;-90
2024/04/06 08:26:37;;;;;;;0.50;0.50;;;3.30;99.90;;;;;;1889489;75;25416;-90
2024/04/06 08:30:12;;;;;;;0.67;0.67;;;3.50;99.90;;;;;;1937534;72;25238;-90
2024/04/06 08:33:11;;;;;;;0.90;0.90;;;3.60;99.90;;;;;;1933954;73;25461;-90
2024/04/06 08:40:01;;;;;;;0.70;0.70;;;3.60;99.90;;;;;;1943544;72;28244;-90
2024/04/06 08:43:30;;;;;;;0.70;0.70;;;3.50;99.90;;;;;;1942196;73;25382;-91
2024/04/06 08:50:01;;;;;;;0.80;0.53;;;3.40;99.90;;;;;;1926302;73;25233;-91
2024/04/06 08:52:59;;;;;;;0.40;0.40;;;3.50;99.90;;;;;;1922411;73;25278;-90
2024/04/06 08:55:54;;;;;;;0.53;0.53;;;3.60;99.90;;;;;;1921396;73;25584;-90
2024/04/06 08:58:46;;;;;;;0.90;0.90;;;3.50;99.90;;;;;;1906349;73;25229;-93
2024/04/06 09:01:36;;;;;;;2.10;0.97;;;3.60;99.90;;;;;;1925686;73;25244;-91
2024/04/06 09:04:26;;;;;;;0.73;0.73;;;3.80;99.90;;;;;;1931440;73;25319;-91
2024/04/06 09:07:55;;;;;;;0.70;0.60;;;3.90;99.90;;;;;;1924756;73;25219;-90
2024/04/06 09:10:47;;;;;;;2.27;0.90;;;3.90;99.90;;;;;;1932690;73;25311;-90
2024/04/06 09:13:46;;;;;;;0.90;0.90;;;4.10;99.90;;;;;;1923887;73;25295;-90
2024/04/06 09:17:16;;;;;;;0.97;0.70;;;4.00;99.90;;;;;;1929996;73;25234;-90
2024/04/06 09:20:09;;;;;;;0.60;0.60;;;3.90;99.90;;;;;;1902430;73;25213;-90
2024/04/06 09:23:11;;;;;;;1.33;1.10;;;3.90;99.90;;;;;;1887598;75;25320;-90
2024/04/06 09:26:07;;;;;;;0.67;0.67;;;3.90;99.90;;;;;;1909357;73;25566;-90
2024/04/06 09:28:59;;;;;;;4.17;2.60;;;3.90;99.90;;;;;;1926822;73;25559;-90
2024/04/06 09:35:07;;;;;;;2.30;1.93;;;4.00;99.90;;;;;;1903407;74;25291;-90
2024/04/06 09:38:34;;;;;;;1.03;0.90;;;3.90;99.90;;;;;;1908754;73;25853;-90
2024/04/06 09:41:23;;;;;;;0.80;0.80;;;3.90;99.90;;;;;;1849043;76;25316;-90
2024/04/06 09:44:15;;;;;;;1.60;1.10;;;4.00;99.90;;;;;;1853477;75;25662;-90
2024/04/06 09:47:06;;;;;;;0.93;0.93;;;4.10;99.90;;;;;;1902030;73;25287;-90
2024/04/06 09:52:58;;;;;;;0.90;0.90;;;4.20;99.90;;;;;;1966191;72;26585;-88
2024/04/06 09:55:49;;;;;;;1.00;1.00;;;4.30;99.90;;;;;;1931597;72;25256;-90
2024/04/06 09:59:16;;;;;;;0.90;0.90;;;4.40;99.90;;;;;;1938629;73;25209;-91
2024/04/06 10:02:04;;;;;;;0.60;0.60;;;4.70;99.90;;;;;;1944406;73;25282;-91
2024/04/06 10:04:58;;;;;;;0.43;0.43;;;5.10;99.90;;;;;;1948042;73;25310;-89
2024/04/06 10:07:52;;;;;;;0.60;0.60;;;5.00;99.90;;;;;;1948852;73;25252;-91
2024/04/06 10:10:49;;;;;;;0.50;0.50;;;5.10;99.90;;;;;;1930992;73;25222;-90
2024/04/06 10:13:40;;;;;;;0.40;0.40;;;5.20;99.90;;;;;;1939965;72;25223;-90
2024/04/06 10:17:07;;;;;;;0.50;0.50;;;5.10;99.90;;;;;;1889657;73;25255;-91
2024/04/06 10:20:01;;;;;;;1.30;0.40;;;5.10;99.90;;;;;;1872469;75;25219;-91
2024/04/06 10:22:56;;;;;;;0.30;0.30;;;5.00;99.90;;;;;;1885505;75;25232;-90
2024/04/06 10:25:45;;;;;;;0.60;0.60;;;5.10;99.90;;;;;;1889445;75;25778;-90
2024/04/06 10:44:46;;;;;;;0.50;0.50;;;5.10;99.90;;;;;;1931065;72;26825;-91
2024/04/06 10:47:36;;;;;;;0.57;0.57;;;5.10;99.90;;;;;;1870800;76;25236;-89
2024/04/06 10:50:26;;;;;;;1.90;0.50;;;5.10;99.90;;;;;;1874877;76;25299;-89
2024/04/06 10:53:15;;;;;;;0.50;0.50;;;5.10;99.90;;;;;;1820408;78;25352;-89
2024/04/06 10:56:05;;;;;;;0.50;0.50;;;4.90;99.90;;;;;;1810714;78;25782;-89
2024/04/06 10:58:54;;;;;;;0.57;0.57;;;5.00;99.90;;;;;;1874073;76;25242;-89
2024/04/06 11:01:43;;;;;;;0.50;0.50;;;4.90;99.90;;;;;;1871384;76;25209;-89
2024/04/06 11:04:33;;;;;;;0.47;0.47;;;4.80;99.90;;;;;;1884409;75;25321;-89
2024/04/06 11:07:22;;;;;;;0.50;0.50;;;4.80;99.90;;;;;;1894988;75;25276;-89
2024/04/06 11:10:11;;;;;;;0.50;0.50;;;4.70;99.90;;;;;;1866030;76;25961;-89
2024/04/06 11:13:00;;;;;;;0.50;0.50;;;4.60;99.90;;;;;;1872116;76;25240;-89
2024/04/06 11:15:50;;;;;;;1.00;0.50;;;4.70;99.90;;;;;;1877555;76;25328;-89
2024/04/06 11:35:08;;;;;;;1.37;1.10;;;4.80;99.90;;;;;;1975313;71;26405;-88
2024/04/06 11:37:57;;;;;;;1.90;1.30;;;4.80;99.90;;;;;;1987927;72;25163;-90
2024/04/06 11:40:48;;;;;;;1.37;1.20;;;4.80;99.90;;;;;;1997383;71;25675;-90
2024/04/06 11:43:36;;;;;;;1.23;1.13;;;4.80;99.90;;;;;;1989386;71;25263;-90
2024/04/06 11:46:25;;;;;;;1.10;1.00;;;4.90;99.90;;;;;;1989816;71;25190;-90
2024/04/06 11:49:14;;;;;;;2.03;1.00;;;5.10;99.90;;;;;;1969032;73;25168;-90
2024/04/06 11:54:46;;;;;;;1.33;1.20;;;5.20;99.90;;;;;;2005997;71;26641;-89
2024/04/06 12:00:26;;;;;;;1.30;1.20;;;5.50;99.90;;;;;;1961105;72;26635;-90
2024/04/06 12:03:15;;;;;;;1.30;1.20;;;5.60;99.90;;;;;;1941045;73;25282;-90
2024/04/06 12:06:04;;;;;;;1.50;1.40;;;5.50;99.90;;;;;;1931329;72;25696;-95
2024/04/06 12:08:53;;;;;;;2.23;1.20;;;5.50;99.90;;;;;;1947024;72;25205;-90
2024/04/06 12:11:42;;;;;;;1.10;1.00;;;5.50;99.90;;;;;;1924973;72;25231;-90
2024/04/06 12:14:31;;;;;;;1.60;1.30;;;5.40;99.90;;;;;;1930575;72;25217;-90
2024/04/06 12:17:26;;;;;;;1.77;1.23;;;5.30;99.90;;;;;;1943638;72;25238;-90
2024/04/06 12:20:10;;;;;;;2.23;1.50;;;5.20;99.90;;;;;;1944485;72;25244;-90
2024/04/06 12:23:00;;;;;;;2.43;1.57;;;4.90;99.90;;;;;;1891636;75;25238;-90
2024/04/06 12:25:48;;;;;;;2.67;1.40;;;4.90;99.90;;;;;;1879495;75;25635;-90
2024/04/06 12:28:37;;;;;;;3.07;1.60;;;4.80;99.90;;;;;;1891852;75;25224;-90
2024/04/06 12:31:27;;;;;;;2.53;1.53;;;4.70;99.90;;;;;;1892339;75;25243;-90
2024/04/06 12:37:03;;;;;;;3.23;2.03;;;4.60;99.90;;;;;;1941895;72;27438;-88
2024/04/06 12:43:12;;;;;;;4.50;2.07;;;4.60;99.90;;;;;;1957720;71;26547;-90
2024/04/06 12:46:01;;;;;;;2.87;1.87;;;4.60;99.90;;;;;;1931671;73;25270;-90
2024/04/06 12:48:50;;;;;;;4.13;2.13;;;4.40;99.90;;;;;;1950266;73;25236;-90
2024/04/06 12:51:38;;;;;;;3.10;2.00;;;4.30;99.90;;;;;;1938314;73;25324;-90
2024/04/06 12:54:27;;;;;;;1.80;1.50;;;4.30;99.90;;;;;;1957284;73;25188;-90
2024/04/06 13:03:07;;;;;;;3.37;1.80;;;4.50;99.90;;;;;;1920199;72;26674;-90
2024/04/06 13:06:01;;;;;;;2.17;1.70;;;4.60;99.90;;;;;;1905185;74;25339;-90
2024/04/06 13:24:15;;;;;;;3.17;1.60;;;4.50;99.90;;;;;;1924973;72;26958;-89
2024/04/06 13:30:11;;;;;;;1.80;1.60;;;4.70;99.90;;;;;;1945034;72;27595;-90
2024/04/06 13:33:00;;;;;;;1.40;1.30;;;4.80;99.90;;;;;;1912647;73;25590;-90
2024/04/06 13:35:51;;;;;;;2.00;1.80;;;4.80;99.90;;;;;;1901263;74;25217;-90
2024/04/06 13:38:40;;;;;;;1.67;1.57;;;5.00;99.90;;;;;;1919862;74;25223;-90
2024/04/06 13:41:31;;;;;;;1.70;1.53;;;5.30;99.90;;;;;;1901975;74;25256;-90
2024/04/06 13:44:20;;;;;;;1.93;1.53;;;5.60;99.90;;;;;;1899865;74;25251;-90
2024/04/06 13:47:16;;;;;;;1.93;1.73;;;5.50;99.90;;;;;;1908546;74;25238;-90
2024/04/06 13:50:05;;;;;;;1.80;1.50;;;5.70;99.90;;;;;;1916486;74;25296;-89
2024/04/06 13:52:55;;;;;;;2.33;1.87;;;5.90;99.90;;;;;;1909320;74;25812;-89
2024/04/06 13:55:46;;;;;;;2.10;1.50;;;5.80;99.90;;;;;;1913164;74;25162;-89
2024/04/06 13:58:35;;;;;;;1.93;1.70;;;5.70;99.90;;;;;;1903164;74;25226;-89
2024/04/06 14:04:17;;;;;;;2.70;2.10;;;5.40;99.90;;;;;;1944017;72;27039;-88
2024/04/06 14:07:07;;;;;;;3.50;2.03;;;5.50;99.90;;;;;;1918254;73;25651;-88
2024/04/06 14:28:29;;;;;;;1.83;1.67;;;5.40;99.90;;;;;;1985087;71;26320;-88
2024/04/06 14:31:18;;;;;;;1.70;1.60;;;5.40;99.90;;;;;;2019036;69;25687;-90
2024/04/06 14:34:11;;;;;;;1.60;1.50;;;5.50;99.90;;;;;;1988374;72;25304;-90
2024/04/06 14:37:01;;;;;;;1.60;1.50;;;5.60;99.90;;;;;;1968591;72;25302;-90
2024/04/06 15:10:53;;;;;;;1.87;1.60;;;5.60;99.90;;;;;;1934338;72;26975;-88
2024/04/06 15:13:42;;;;;;;1.83;1.70;;;5.50;99.90;;;;;;1898216;74;25662;-88
2024/04/06 15:16:37;;;;;;;2.13;1.90;;;5.30;99.90;;;;;;1898933;74;26552;-88
2024/04/06 15:19:29;;;;;;;2.10;1.90;;;5.20;99.90;;;;;;1898402;75;25360;-89
2024/04/06 15:22:22;;;;;;;2.20;2.10;;;5.00;99.90;;;;;;1895353;75;25779;-90
2024/04/06 15:25:12;;;;;;;1.97;1.80;;;4.90;99.90;;;;;;1900901;75;25322;-88
2024/04/06 15:30:46;;;;;;;4.50;1.70;;;5.30;99.90;;;;;;1952876;72;26933;-90
2024/04/06 15:33:34;;;;;;;1.60;1.50;;;5.20;99.90;;;;;;1873389;76;25357;-87
2024/04/06 15:36:25;;;;;;;1.50;1.40;;;5.20;99.90;;;;;;1863301;76;25300;-87
2024/04/06 15:42:06;;;;;;;1.20;1.20;;;4.70;99.90;;;;;;1923276;72;27115;-88
2024/04/06 15:47:41;;;;;;;1.43;1.33;;;4.60;99.90;;;;;;1945376;72;26956;-87
2024/04/06 15:50:30;;;;;;;1.10;1.10;;;4.50;99.90;;;;;;1927882;72;25737;-87
2024/04/06 15:53:19;;;;;;;1.20;1.10;;;4.30;99.90;;;;;;1927412;72;25243;-87
2024/04/06 15:56:10;;;;;;;1.30;1.30;;;4.30;99.90;;;;;;1917897;72;25195;-87
2024/04/06 15:59:00;;;;;;;1.53;1.37;;;4.30;99.90;;;;;;1880239;75;25234;-87
2024/04/06 16:01:49;;;;;;;2.13;1.30;;;4.10;99.90;;;;;;1911086;74;25176;-87
2024/04/06 16:07:24;;;;;;;1.50;1.40;;;4.00;99.90;;;;;;2047084;69;27017;-87
2024/04/06 16:10:14;;;;;;;1.50;1.40;;;4.00;99.90;;;;;;1991603;71;25214;-87
2024/04/06 16:15:44;;;;;;;1.63;1.33;;;4.10;99.90;;;;;;1960318;72;27027;-87
2024/04/06 16:18:33;;;;;;;1.33;1.23;;;4.20;99.90;;;;;;1925379;73;25150;-87
2024/04/06 16:21:23;;;;;;;1.40;1.20;;;4.20;99.90;;;;;;1927631;73;25727;-87
2024/04/06 16:24:11;;;;;;;1.60;1.40;;;4.10;99.90;;;;;;1918755;73;25318;-87
2024/04/06 16:27:00;;;;;;;1.60;1.40;;;4.00;99.90;;;;;;1920599;73;25796;-87
2024/04/06 16:29:49;;;;;;;2.60;1.40;;;4.00;99.90;;;;;;1894425;75;25232;-87
2024/04/06 16:32:40;;;;;;;1.30;1.20;;;3.80;99.90;;;;;;1921706;73;25275;-87
2024/04/06 16:35:29;;;;;;;1.50;1.40;;;3.70;99.90;;;;;;1935906;73;25205;-86
2024/04/06 16:38:21;;;;;;;1.73;1.63;;;3.70;99.90;;;;;;1936164;73;25198;-87
2024/04/06 16:41:10;;;;;;;1.80;1.60;;;3.80;99.90;;;;;;1920546;73;25326;-87
2024/04/06 16:43:59;;;;;;;4.03;1.67;;;3.90;99.90;;;;;;1922192;73;25230;-86
2024/04/06 16:49:27;;;;;;;1.57;1.47;;;3.80;99.90;;;;;;1933330;72;26858;-87
2024/04/06 16:54:56;;;;;;;2.10;1.70;;;3.60;99.90;;;;;;1932181;72;26620;-87
2024/04/06 16:57:45;;;;;;;3.03;2.00;;;3.50;99.90;;;;;;1862099;76;25278;-87
2024/04/06 17:03:15;;;;;;;2.37;2.10;;;3.40;99.90;;;;;;1973948;72;27185;-87
2024/04/06 17:06:03;;;;;;;2.50;1.80;;;3.50;99.90;;;;;;1919982;72;25164;-87
2024/04/06 17:08:52;;;;;;;2.73;2.10;;;3.50;99.90;;;;;;1929902;73;25270;-87
2024/04/06 17:11:40;;;;;;;2.73;2.27;;;3.50;99.90;;;;;;1938455;73;25359;-87
2024/04/06 17:14:29;;;;;;;2.37;2.10;;;3.40;99.90;;;;;;1917320;73;25201;-86
2024/04/06 17:17:18;;;;;;;2.97;2.30;;;3.50;99.90;;;;;;1925778;73;25243;-87
2024/04/06 17:20:08;;;;;;;3.30;2.23;;;3.50;99.90;;;;;;1928337;73;25741;-86
2024/04/06 17:22:58;;;;;;;4.00;2.40;;;3.50;99.90;;;;;;1942806;73;25788;-86
2024/04/06 17:25:46;;;;;;;2.93;1.87;;;3.30;99.90;;;;;;1920492;73;25198;-86
2024/04/06 17:28:34;;;;;;;2.73;2.00;;;3.20;99.90;;;;;;1921041;73;25262;-87
2024/04/06 17:31:28;;;;;;;5.33;2.40;;;3.20;99.90;;;;;;1921939;73;25710;-86
2024/04/06 17:34:19;;;;;;;3.57;2.33;;;3.30;99.90;;;;;;1919244;73;25312;-86
2024/04/06 17:37:09;;;;;;;2.80;2.30;;;3.30;99.90;;;;;;1920093;73;25279;-86
2024/04/06 17:40:00;;;;;;;3.43;2.50;;;3.30;99.90;;;;;;1916757;73;25763;-86
2024/04/06 17:42:49;;;;;;;3.00;2.10;;;3.20;99.90;;;;;;1916384;75;25217;-86
2024/04/06 17:45:39;;;;;;;3.60;2.47;;;3.20;99.90;;;;;;1929758;73;25212;-86
2024/04/06 17:48:30;;;;;;;5.63;2.70;;;3.20;99.90;;;;;;1928530;73;25285;-86
2024/04/06 17:51:19;;;;;;;4.37;2.60;;;3.20;99.90;;;;;;1921386;73;25235;-86
2024/04/06 17:54:08;;;;;;;4.07;2.53;;;3.20;99.90;;;;;;1927387;73;25269;-88
2024/04/06 17:59:41;;;;;;;12.43;5.83;;;3.20;99.90;;;;;;1950844;72;27078;-87
2024/04/06 18:02:29;;;;;;;9.53;4.63;;;3.20;99.90;;;;;;1922569;72;25349;-87
2024/04/06 18:05:18;;;;;;;10.27;5.47;;;3.20;99.90;;;;;;1922388;73;25287;-87
2024/04/06 18:08:07;;;;;;;7.77;4.17;;;3.20;99.90;;;;;;1936159;72;25216;-87
2024/04/06 18:11:02;;;;;;;12.00;5.93;;;3.00;99.90;;;;;;1903620;73;25705;-87
2024/04/06 18:13:51;;;;;;;10.07;4.97;;;3.10;99.90;;;;;;1883043;73;25801;-87
2024/04/06 18:16:40;;;;;;;8.27;4.50;;;3.10;99.90;;;;;;1882259;75;25229;-87
2024/04/06 18:22:15;;;;;;;10.00;4.10;;;3.10;99.90;;;;;;1926026;72;27370;-88
2024/04/06 18:25:09;;;;;;;10.13;4.60;;;3.20;99.90;;;;;;1916669;73;25196;-88
2024/04/06 18:28:01;;;;;;;8.40;4.00;;;3.20;99.90;;;;;;1895180;73;25596;-88
2024/04/06 18:30:49;;;;;;;11.17;3.90;;;3.30;99.90;;;;;;1909586;73;25179;-87
2024/04/06 18:33:41;;;;;;;9.10;3.47;;;3.30;99.90;;;;;;1900484;73;25225;-87
2024/04/06 18:36:30;;;;;;;6.27;3.40;;;3.10;99.90;;;;;;1914754;73;25337;-87
2024/04/06 18:39:26;;;;;;;8.43;3.43;;;3.10;99.90;;;;;;1838155;77;25345;-87
2024/04/06 18:42:16;;;;;;;7.47;3.77;;;3.00;99.90;;;;;;1865600;75;25793;-86
2024/04/06 18:45:10;;;;;;;9.40;4.17;;;3.10;99.90;;;;;;1891877;73;25256;-88
2024/04/06 18:47:59;;;;;;;7.83;4.20;;;3.10;99.90;;;;;;1907351;75;25229;-88
2024/04/06 18:50:50;;;;;;;8.13;4.03;;;3.20;99.90;;;;;;1901072;74;25262;-88
2024/04/06 18:56:22;;;;;;;6.40;3.73;;;3.20;99.90;;;;;;1958879;72;26841;-87
2024/04/06 18:59:13;;;;;;;7.43;3.60;;;3.20;99.90;;;;;;1947011;72;25221;-87
2024/04/06 19:02:03;;;;;;;7.13;3.60;;;3.20;99.90;;;;;;1920879;73;25189;-87
2024/04/06 19:07:33;;;;;;;8.33;4.17;;;3.20;99.90;;;;;;1936471;72;26981;-87
2024/04/06 19:10:22;;;;;;;7.93;4.17;;;3.30;99.90;;;;;;1913208;73;25235;-87
2024/04/06 19:13:10;;;;;;;13.03;4.83;;;3.30;99.90;;;;;;1907521;75;25265;-87
2024/04/06 19:15:59;;;;;;;10.93;5.17;;;3.30;99.90;;;;;;1915811;73;25198;-87
2024/04/06 19:18:47;;;;;;;7.83;3.97;;;3.50;99.90;;;;;;1914207;73;25635;-87
2024/04/06 19:21:37;;;;;;;8.20;3.97;;;3.50;99.90;;;;;;1902343;73;25230;-87
2024/04/06 19:24:26;;;;;;;10.80;3.80;;;3.50;99.90;;;;;;1914314;73;25289;-87
2024/04/06 19:27:14;;;;;;;6.00;3.87;;;3.50;99.90;;;;;;1915679;73;26879;-86
2024/04/06 19:30:03;;;;;;;13.73;4.30;;;3.50;99.90;;;;;;1911580;73;25278;-85
2024/04/06 19:32:53;;;;;;;8.00;4.73;;;3.60;99.90;;;;;;1915840;74;25861;-88
2024/04/06 19:35:42;;;;;;;7.87;4.63;;;3.60;99.90;;;;;;1894166;75;25297;-85
2024/04/06 19:38:32;;;;;;;7.90;4.40;;;3.70;99.90;;;;;;1894484;74;25244;-88
2024/04/06 19:41:22;;;;;;;8.27;4.37;;;3.80;99.90;;;;;;1915345;75;25300;-87
2024/04/06 19:44:11;;;;;;;6.83;4.00;;;3.70;99.90;;;;;;1904246;73;25371;-87
2024/04/06 19:49:44;;;;;;;6.57;3.90;;;3.90;99.90;;;;;;1948458;72;26936;-87
2024/04/06 19:52:32;;;;;;;7.17;3.87;;;3.90;99.90;;;;;;1926027;72;25663;-87
2024/04/06 19:55:21;;;;;;;7.17;3.70;;;4.00;99.90;;;;;;1937846;72;25272;-87
2024/04/06 19:58:10;;;;;;;7.10;4.00;;;4.00;99.90;;;;;;1919667;73;25750;-86
2024/04/06 20:00:58;;;;;;;4.23;2.70;;;4.10;99.90;;;;;;1929988;73;25285;-86
2024/04/06 20:03:48;;;;;;;8.23;3.03;;;4.10;99.90;;;;;;1922071;73;25255;-87
2024/04/06 20:06:37;;;;;;;6.77;4.10;;;4.10;99.90;;;;;;1917070;73;25253;-88
2024/04/06 20:09:25;;;;;;;8.00;3.90;;;4.10;99.90;;;;;;1866763;75;25867;-88
2024/04/06 20:12:14;;;;;;;6.93;3.93;;;4.20;99.90;;;;;;1878836;75;25878;-85
2024/04/06 20:15:03;;;;;;;5.53;3.97;;;4.20;99.90;;;;;;1864815;76;25847;-87
2024/04/06 20:17:51;;;;;;;7.77;3.80;;;4.20;99.90;;;;;;1866370;75;25299;-88
2024/04/06 20:26:34;;;;;;;7.07;4.20;;;4.10;99.90;;;;;;1937768;73;25170;-87
2024/04/06 20:29:26;;;;;;;6.83;4.67;;;4.10;99.90;;;;;;1925122;73;25852;-87
2024/04/06 20:32:13;;;;;;;8.50;4.23;;;4.10;99.90;;;;;;1916158;73;25286;-87
2024/04/06 20:35:03;;;;;;;7.90;4.63;;;4.10;99.90;;;;;;1935207;73;25181;-87
2024/04/06 20:40:32;;;;;;;9.60;4.70;;;4.20;99.90;;;;;;1952373;72;26763;-87
2024/04/06 20:43:21;;;;;;;7.50;4.10;;;4.20;99.90;;;;;;1929812;72;25197;-87
2024/04/06 20:46:10;;;;;;;9.20;4.30;;;4.20;99.90;;;;;;1926632;72;25273;-87
2024/04/06 20:48:58;;;;;;;7.53;3.57;;;4.30;99.90;;;;;;1919097;72;25164;-87
2024/04/06 20:51:46;;;;;;;9.03;4.80;;;4.30;99.90;;;;;;1922671;73;25168;-87
2024/04/06 20:54:35;;;;;;;8.10;4.10;;;4.30;99.90;;;;;;1925359;73;25290;-87
2024/04/06 21:00:11;;;;;;;9.43;4.40;;;4.40;99.90;;;;;;1950517;72;26963;-87
2024/04/06 21:03:00;;;;;;;7.40;4.60;;;4.40;99.90;;;;;;1923061;73;25643;-87
2024/04/06 21:08:28;;;;;;;7.87;4.40;;;4.50;99.90;;;;;;1930781;72;27045;-87
2024/04/06 21:13:58;;;;;;;3.97;2.60;;;4.60;99.90;;;;;;1934763;72;27323;-88
2024/04/06 21:16:47;;;;;;;5.73;3.83;;;4.60;99.90;;;;;;1914843;75;25335;-88
2024/04/06 21:19:35;;;;;;;8.00;4.13;;;4.60;99.90;;;;;;1910028;75;25198;-87
2024/04/06 21:22:25;;;;;;;6.70;3.70;;;4.60;99.90;;;;;;1902944;75;25236;-87
2024/04/06 21:25:14;;;;;;;5.67;3.87;;;4.70;99.90;;;;;;1899669;75;25229;-87